createdAt,value
2018-03-26T00:01:25.262Z,0.70
2018-03-26T00:03:52.756Z,0.60
2018-03-26T00:06:20.264Z,0.50
2018-03-26T00:08:47.766Z,0.40
2018-03-26T00:11:15.264Z,0.30
2018-03-26T00:13:43.534Z,0.30
2018-03-26T00:16:11.808Z,0.20
2018-03-26T00:18:39.311Z,0.20
2018-03-26T00:21:06.840Z,0.20
2018-03-26T00:23:34.333Z,0.20
2018-03-26T00:26:01.831Z,0.20
2018-03-26T00:28:29.332Z,0.20
2018-03-26T00:30:56.852Z,0.20
2018-03-26T00:33:25.125Z,0.00
2018-03-26T00:35:53.387Z,0.00
2018-03-26T00:38:20.896Z,-0.10
2018-03-26T00:40:48.403Z,-0.10
2018-03-26T00:43:15.907Z,-0.10
2018-03-26T00:45:43.419Z,-0.20
2018-03-26T00:48:10.930Z,-0.20
2018-03-26T00:50:38.423Z,-0.30
2018-03-26T00:53:05.922Z,-0.30
2018-03-26T00:55:33.433Z,-0.40
2018-03-26T00:58:00.939Z,-0.30
2018-03-26T01:00:28.438Z,-0.40
2018-03-26T01:02:55.943Z,-0.30
2018-03-26T01:05:24.208Z,0.00
2018-03-26T01:07:52.480Z,0.10
2018-03-26T01:10:20.007Z,0.10
2018-03-26T01:12:47.515Z,0.30
2018-03-26T01:15:15.771Z,0.40
2018-03-26T01:17:43.270Z,0.40
2018-03-26T01:20:10.768Z,0.50
2018-03-26T01:22:38.270Z,0.50
2018-03-26T01:25:06.523Z,0.70
2018-03-26T01:27:34.028Z,0.70
2018-03-26T01:30:01.545Z,0.80
2018-03-26T01:32:29.158Z,0.90
2018-03-26T01:34:56.734Z,0.80
2018-03-26T01:37:24.297Z,0.70
2018-03-26T01:39:51.844Z,0.70
2018-03-26T01:42:19.380Z,0.80
2018-03-26T01:44:47.686Z,0.70
2018-03-26T01:47:15.245Z,0.70
2018-03-26T01:49:42.792Z,0.70
2018-03-26T01:52:10.366Z,0.80
2018-03-26T01:54:37.964Z,0.70
2018-03-26T01:57:05.572Z,0.90
2018-03-26T01:59:33.161Z,1.00
2018-03-26T02:02:00.744Z,1.10
2018-03-26T02:04:28.312Z,1.10
2018-03-26T02:06:55.860Z,1.10
2018-03-26T02:09:23.426Z,1.20
2018-03-26T02:11:50.972Z,1.20
2018-03-26T02:14:18.580Z,1.30
2018-03-26T02:16:46.873Z,1.30
2018-03-26T02:19:14.409Z,1.30
2018-03-26T02:21:41.970Z,1.40
2018-03-26T02:24:09.518Z,1.40
2018-03-26T02:26:37.121Z,1.30
2018-03-26T02:29:04.604Z,1.30
2018-03-26T02:31:32.136Z,1.30
2018-03-26T02:33:59.691Z,1.30
2018-03-26T02:36:27.258Z,1.30
2018-03-26T02:38:54.814Z,1.30
2018-03-26T02:41:22.367Z,1.40
2018-03-26T02:43:49.934Z,1.30
2018-03-26T02:46:17.489Z,1.40
2018-03-26T02:48:45.046Z,1.50
2018-03-26T02:51:12.597Z,1.60
2018-03-26T02:53:40.141Z,1.60
2018-03-26T02:56:08.484Z,1.50
2018-03-26T02:58:36.029Z,1.60
2018-03-26T03:01:03.646Z,1.50
2018-03-26T03:03:31.965Z,1.40
2018-03-26T03:05:59.541Z,1.40
2018-03-26T03:08:27.084Z,1.40
2018-03-26T03:10:54.657Z,1.40
2018-03-26T03:13:22.204Z,1.50
2018-03-26T03:15:49.802Z,1.50
2018-03-26T03:18:17.324Z,1.50
2018-03-26T03:20:44.871Z,1.50
2018-03-26T03:23:12.413Z,1.40
2018-03-26T03:25:39.984Z,1.30
2018-03-26T03:28:07.547Z,1.30
2018-03-26T03:30:35.127Z,1.20
2018-03-26T03:33:02.701Z,1.10
2018-03-26T03:35:30.252Z,1.00
2018-03-26T03:37:57.857Z,0.90
2018-03-26T03:40:25.404Z,0.90
2018-03-26T03:42:53.727Z,0.80
2018-03-26T03:45:21.349Z,0.70
2018-03-26T03:47:49.713Z,0.80
2018-03-26T03:50:18.037Z,0.90
2018-03-26T03:52:45.589Z,0.90
2018-03-26T03:55:13.132Z,0.90
2018-03-26T03:57:41.453Z,0.90
2018-03-26T04:00:09.092Z,0.90
2018-03-26T04:02:36.607Z,0.90
2018-03-26T04:05:04.985Z,0.70
2018-03-26T04:07:32.531Z,0.70
2018-03-26T04:10:00.077Z,0.60
2018-03-26T04:12:27.636Z,0.60
2018-03-26T04:14:55.212Z,0.50
2018-03-26T04:17:22.798Z,0.50
2018-03-26T04:19:50.346Z,0.60
2018-03-26T04:22:17.898Z,0.60
2018-03-26T04:24:45.425Z,0.70
2018-03-26T04:27:12.970Z,0.70
2018-03-26T04:29:40.566Z,1.00
2018-03-26T04:32:08.225Z,1.00
2018-03-26T04:34:35.742Z,1.00
2018-03-26T04:37:03.306Z,1.00
2018-03-26T04:39:30.891Z,0.80
2018-03-26T04:41:58.443Z,0.70
2018-03-26T04:44:26.020Z,0.50
2018-03-26T04:46:53.572Z,0.40
2018-03-26T04:49:21.125Z,0.30
2018-03-26T04:51:48.666Z,0.50
2018-03-26T04:54:16.238Z,0.60
2018-03-26T04:56:43.817Z,0.60
2018-03-26T04:59:11.430Z,0.60
2018-03-26T05:01:39.745Z,0.50
2018-03-26T05:04:07.327Z,0.40
2018-03-26T05:06:34.937Z,0.70
2018-03-26T05:09:02.574Z,0.80
2018-03-26T05:11:30.188Z,0.80
2018-03-26T05:13:57.731Z,0.90
2018-03-26T05:16:25.425Z,0.90
2018-03-26T05:18:53.045Z,0.90
2018-03-26T05:21:20.594Z,0.90
2018-03-26T05:23:48.163Z,0.90
2018-03-26T05:26:15.733Z,0.90
2018-03-26T05:28:43.357Z,0.90
2018-03-26T05:31:10.962Z,0.90
2018-03-26T05:33:38.680Z,0.90
2018-03-26T05:36:07.066Z,1.10
2018-03-26T05:38:35.427Z,1.30
2018-03-26T05:41:03.028Z,1.20
2018-03-26T05:43:30.612Z,1.40
2018-03-26T05:45:58.968Z,1.80
2018-03-26T05:48:26.513Z,1.80
2018-03-26T05:50:54.094Z,1.90
2018-03-26T05:53:21.628Z,1.90
2018-03-26T05:55:49.201Z,1.80
2018-03-26T05:58:16.760Z,2.00
2018-03-26T06:00:44.480Z,2.40
2018-03-26T06:03:12.066Z,2.80
2018-03-26T06:05:40.936Z,3.60
2018-03-26T06:08:08.500Z,3.60
2018-03-26T06:10:36.034Z,3.90
2018-03-26T06:13:04.338Z,4.40
2018-03-26T06:15:31.934Z,4.30
2018-03-26T06:17:59.423Z,4.10
2018-03-26T06:20:26.963Z,4.10
2018-03-26T06:22:54.527Z,4.10
2018-03-26T06:25:22.111Z,4.60
2018-03-26T06:27:49.705Z,5.20
2018-03-26T06:30:17.295Z,6.40
2018-03-26T06:32:44.903Z,6.60
2018-03-26T06:35:12.465Z,7.80
2018-03-26T06:37:45.797Z,7.20
2018-03-26T06:40:14.134Z,6.60
2018-03-26T06:42:41.704Z,6.60
2018-03-26T06:45:09.308Z,6.80
2018-03-26T06:47:36.944Z,7.50
2018-03-26T06:50:04.516Z,9.10
2018-03-26T06:52:32.850Z,9.90
2018-03-26T06:55:00.404Z,9.90
2018-03-26T06:57:28.003Z,8.70
2018-03-26T06:59:56.387Z,6.80
2018-03-26T07:02:24.003Z,6.80
2018-03-26T07:04:51.635Z,6.10
2018-03-26T07:07:19.280Z,5.90
2018-03-26T07:09:46.837Z,5.70
2018-03-26T07:12:15.201Z,6.00
2018-03-26T07:14:43.501Z,6.70
2018-03-26T07:17:12.764Z,8.60
2018-03-26T07:19:40.307Z,8.60
2018-03-26T07:22:07.945Z,8.40
2018-03-26T07:24:35.549Z,8.40
2018-03-26T07:27:03.336Z,8.90
2018-03-26T07:29:35.625Z,9.70
2018-03-26T07:32:03.316Z,9.70
2018-03-26T07:34:30.976Z,10.30
2018-03-26T07:36:58.502Z,9.20
2018-03-26T07:39:26.114Z,9.20
2018-03-26T07:41:53.669Z,7.90
2018-03-26T07:44:21.217Z,7.60
2018-03-26T07:46:48.793Z,6.40
2018-03-26T07:49:16.436Z,5.90
2018-03-26T07:51:51.286Z,5.70
2018-03-26T07:54:18.885Z,5.70
2018-03-26T07:56:46.452Z,6.10
2018-03-26T07:59:14.024Z,6.00
2018-03-26T08:01:41.790Z,5.90
2018-03-26T08:04:09.380Z,5.80
2018-03-26T08:06:36.923Z,6.10
2018-03-26T08:09:04.472Z,6.30
2018-03-26T08:11:32.053Z,6.50
2018-03-26T08:13:59.756Z,6.90
2018-03-26T08:16:28.109Z,7.80
2018-03-26T08:18:55.697Z,7.80
2018-03-26T08:21:25.415Z,7.80
2018-03-26T08:23:52.965Z,7.70
2018-03-26T08:26:21.343Z,8.10
2018-03-26T08:28:49.662Z,8.30
2018-03-26T08:31:17.282Z,8.30
2018-03-26T08:33:50.147Z,8.20
2018-03-26T08:36:17.695Z,8.40
2018-03-26T08:38:45.244Z,8.70
2018-03-26T08:41:12.819Z,9.40
2018-03-26T08:43:40.360Z,11.00
2018-03-26T08:46:07.966Z,11.70
2018-03-26T08:48:35.558Z,11.70
2018-03-26T08:51:03.165Z,12.80
2018-03-26T08:53:30.701Z,12.70
2018-03-26T08:55:58.298Z,11.90
2018-03-26T08:58:26.621Z,11.60
2018-03-26T09:00:54.981Z,13.00
2018-03-26T09:03:23.894Z,13.00
2018-03-26T09:05:51.541Z,14.60
2018-03-26T09:08:19.073Z,14.50
2018-03-26T09:10:46.605Z,15.10
2018-03-26T09:13:14.171Z,15.50
2018-03-26T09:15:42.497Z,14.40
2018-03-26T09:18:10.058Z,14.40
2018-03-26T09:20:44.632Z,15.50
2018-03-26T09:23:12.168Z,16.60
2018-03-26T09:25:39.981Z,16.20
2018-03-26T09:28:08.780Z,16.20
2018-03-26T09:30:36.420Z,16.20
2018-03-26T09:33:04.078Z,14.80
2018-03-26T09:35:33.036Z,14.70
2018-03-26T09:38:00.601Z,14.60
2018-03-26T09:40:28.221Z,14.50
2018-03-26T09:42:56.548Z,15.80
2018-03-26T09:45:24.219Z,15.70
2018-03-26T09:47:52.521Z,15.10
2018-03-26T09:50:20.076Z,15.10
2018-03-26T09:52:47.602Z,15.40
2018-03-26T09:55:15.150Z,15.10
2018-03-26T09:57:42.724Z,13.90
2018-03-26T10:00:10.273Z,13.80
2018-03-26T10:02:37.834Z,13.70
2018-03-26T10:05:05.397Z,14.80
2018-03-26T10:07:32.959Z,14.70
2018-03-26T10:10:00.536Z,14.10
2018-03-26T10:12:28.846Z,11.90
2018-03-26T10:14:56.409Z,11.80
2018-03-26T10:17:23.967Z,10.40
2018-03-26T10:19:52.730Z,10.10
2018-03-26T10:22:21.199Z,10.50
2018-03-26T10:24:49.519Z,10.70
2018-03-26T10:27:17.066Z,10.70
2018-03-26T10:29:44.645Z,11.10
2018-03-26T10:32:12.209Z,11.40
2018-03-26T10:34:39.776Z,11.50
2018-03-26T10:37:07.402Z,11.50
2018-03-26T10:39:34.988Z,11.30
2018-03-26T10:42:02.552Z,12.00
2018-03-26T10:44:30.139Z,12.60
2018-03-26T10:46:57.792Z,12.30
2018-03-26T10:49:25.384Z,11.90
2018-03-26T10:51:53.700Z,12.50
2018-03-26T10:54:21.261Z,12.40
2018-03-26T10:56:48.828Z,11.80
2018-03-26T10:59:16.381Z,11.20
2018-03-26T11:01:43.940Z,11.10
2018-03-26T11:04:11.480Z,11.20
2018-03-26T11:06:39.001Z,11.60
2018-03-26T11:09:06.612Z,11.50
2018-03-26T11:11:34.210Z,10.90
2018-03-26T11:14:01.813Z,10.60
2018-03-26T11:16:30.164Z,10.90
2018-03-26T11:18:57.712Z,10.90
2018-03-26T11:21:25.268Z,11.30
2018-03-26T11:23:52.817Z,11.10
2018-03-26T11:26:20.396Z,11.30
2018-03-26T11:28:48.716Z,11.20
2018-03-26T11:31:17.064Z,11.20
2018-03-26T11:33:44.616Z,11.10
2018-03-26T11:36:12.228Z,11.00
2018-03-26T11:38:39.826Z,11.20
2018-03-26T11:41:07.393Z,11.10
2018-03-26T11:43:35.000Z,11.30
2018-03-26T11:46:03.369Z,11.50
2018-03-26T11:48:31.703Z,11.70
2018-03-26T11:50:59.262Z,11.70
2018-03-26T11:53:26.816Z,12.10
2018-03-26T11:55:54.388Z,12.40
2018-03-26T11:58:21.928Z,12.40
2018-03-26T12:00:49.516Z,12.30
2018-03-26T12:03:17.058Z,12.00
2018-03-26T12:05:44.618Z,12.10
2018-03-26T12:08:12.168Z,11.80
2018-03-26T12:10:39.746Z,11.40
2018-03-26T12:13:07.336Z,11.50
2018-03-26T12:15:34.897Z,11.30
2018-03-26T12:18:02.468Z,11.10
2018-03-26T12:20:41.759Z,10.90
2018-03-26T12:26:10.223Z,11.30
2018-03-26T12:28:50.414Z,11.60
2018-03-26T12:31:17.910Z,11.60
2018-03-26T12:33:57.788Z,11.70
2018-03-26T12:36:25.286Z,11.90
2018-03-26T12:38:52.778Z,11.90
2018-03-26T12:41:20.274Z,12.00
2018-03-26T12:43:48.157Z,12.10
2018-03-26T12:46:27.590Z,12.40
2018-03-26T12:48:55.149Z,12.50
2018-03-26T12:51:34.470Z,12.10
2018-03-26T12:54:02.919Z,11.80
2018-03-26T12:56:31.310Z,11.40
2018-03-26T12:58:58.794Z,11.40
2018-03-26T13:01:39.066Z,11.10
2018-03-26T13:04:06.642Z,11.00
2018-03-26T13:06:34.159Z,10.80
2018-03-26T13:09:15.021Z,10.70
2018-03-26T13:11:42.525Z,10.70
2018-03-26T13:14:10.031Z,10.70
2018-03-26T13:16:37.522Z,10.30
2018-03-26T13:19:05.035Z,10.30
2018-03-26T13:21:32.550Z,10.30
2018-03-26T13:24:00.043Z,10.30
2018-03-26T13:26:27.550Z,10.00
2018-03-26T13:28:55.828Z,9.80
2018-03-26T13:31:23.427Z,9.80
2018-03-26T13:33:50.950Z,9.80
2018-03-26T13:36:18.464Z,9.90
2018-03-26T13:38:47.971Z,10.00
2018-03-26T13:41:15.586Z,9.90
2018-03-26T13:43:43.114Z,9.60
2018-03-26T13:46:11.362Z,9.30
2018-03-26T13:48:38.854Z,9.20
2018-03-26T13:51:07.105Z,9.30
2018-03-26T13:53:34.585Z,9.30
2018-03-26T13:56:02.848Z,9.00
2018-03-26T13:58:30.438Z,9.00
2018-03-26T14:00:58.691Z,8.70
2018-03-26T14:03:29.590Z,8.70
2018-03-26T14:05:57.086Z,8.80
2018-03-26T14:08:36.514Z,8.80
2018-03-26T14:11:16.088Z,8.80
2018-03-26T14:13:55.646Z,8.70
2018-03-26T14:16:35.074Z,8.70
2018-03-26T14:19:02.587Z,8.90
2018-03-26T14:21:30.530Z,9.20
2018-03-26T14:23:58.106Z,9.20
2018-03-26T14:26:25.601Z,9.20
2018-03-26T14:28:53.114Z,9.20
2018-03-26T14:31:20.606Z,9.20
2018-03-26T14:33:48.092Z,9.30
2018-03-26T14:36:16.352Z,9.60
2018-03-26T14:38:43.835Z,9.60
2018-03-26T14:41:11.326Z,9.60
2018-03-26T14:43:38.810Z,9.40
2018-03-26T14:46:06.301Z,9.40
2018-03-26T14:48:34.880Z,9.10
2018-03-26T14:51:03.129Z,9.10
2018-03-26T14:53:31.568Z,9.10
2018-03-26T14:55:59.058Z,9.40
2018-03-26T14:58:26.545Z,9.30
2018-03-26T15:00:54.037Z,9.20
2018-03-26T15:03:21.527Z,9.60
2018-03-26T15:05:49.014Z,9.90
2018-03-26T15:08:16.498Z,10.10
2018-03-26T15:10:44.013Z,10.30
2018-03-26T15:13:11.666Z,10.40
2018-03-26T15:15:39.158Z,10.20
2018-03-26T15:18:07.415Z,10.80
2018-03-26T15:20:34.901Z,10.80
2018-03-26T15:23:08.830Z,11.10
2018-03-26T15:25:36.317Z,11.10
2018-03-26T15:28:03.811Z,10.80
2018-03-26T15:30:31.304Z,11.10
2018-03-26T15:32:58.794Z,10.80
2018-03-26T15:35:26.289Z,10.80
2018-03-26T15:38:03.902Z,10.80
2018-03-26T15:40:32.151Z,10.30
2018-03-26T15:43:03.654Z,10.30
2018-03-26T15:45:31.143Z,10.40
2018-03-26T15:47:58.634Z,10.60
2018-03-26T15:50:26.886Z,10.20
2018-03-26T15:52:54.378Z,10.20
2018-03-26T15:55:22.721Z,10.30
2018-03-26T15:57:50.214Z,10.30
2018-03-26T16:00:18.470Z,10.00
2018-03-26T16:03:12.626Z,10.00
2018-03-26T16:05:40.115Z,10.00
2018-03-26T16:08:07.608Z,9.70
2018-03-26T16:10:35.109Z,9.70
2018-03-26T16:13:04.577Z,9.60
2018-03-26T16:15:32.105Z,9.50
2018-03-26T16:18:00.359Z,9.10
2018-03-26T16:20:27.841Z,9.00
2018-03-26T16:22:56.166Z,9.10
2018-03-26T16:25:23.726Z,9.10
2018-03-26T16:27:51.236Z,8.80
2018-03-26T16:30:19.530Z,8.80
2018-03-26T16:32:47.128Z,8.80
2018-03-26T16:35:14.630Z,8.80
2018-03-26T16:37:42.896Z,8.70
2018-03-26T16:40:18.146Z,8.70
2018-03-26T16:42:46.408Z,8.30
2018-03-26T16:45:13.893Z,8.30
2018-03-26T16:47:57.138Z,8.10
2018-03-26T16:50:24.820Z,8.10
2018-03-26T16:52:52.616Z,7.90
2018-03-26T16:55:20.138Z,7.60
2018-03-26T16:57:54.594Z,7.50
2018-03-26T17:00:22.138Z,7.40
2018-03-26T17:02:49.719Z,7.50
2018-03-26T17:05:17.288Z,7.40
2018-03-26T17:07:44.906Z,7.40
2018-03-26T17:10:12.489Z,7.30
2018-03-26T17:12:39.978Z,7.30
2018-03-26T17:15:07.478Z,7.20
2018-03-26T17:17:35.022Z,7.10
2018-03-26T17:20:02.527Z,7.00
2018-03-26T17:22:30.027Z,7.00
2018-03-26T17:24:57.523Z,7.00
2018-03-26T17:27:25.070Z,6.90
2018-03-26T17:29:52.547Z,6.90
2018-03-26T17:32:20.851Z,6.70
2018-03-26T17:34:48.546Z,6.70
2018-03-26T17:37:16.115Z,6.70
2018-03-26T17:39:44.490Z,6.70
2018-03-26T17:42:12.092Z,6.60
2018-03-26T17:44:42.954Z,6.50
2018-03-26T17:47:10.446Z,6.50
2018-03-26T17:49:37.935Z,6.40
2018-03-26T17:52:05.428Z,6.40
2018-03-26T17:54:32.953Z,6.30
2018-03-26T17:57:01.208Z,6.20
2018-03-26T17:59:28.697Z,6.20
2018-03-26T18:01:56.955Z,6.10
2018-03-26T18:04:24.442Z,6.10
2018-03-26T18:06:59.751Z,6.00
2018-03-26T18:09:27.238Z,6.00
2018-03-26T18:11:55.494Z,5.90
2018-03-26T18:14:22.996Z,5.90
2018-03-26T18:16:50.478Z,5.90
2018-03-26T18:19:17.965Z,5.80
2018-03-26T18:21:45.450Z,5.80
2018-03-26T18:24:12.942Z,5.80
2018-03-26T18:26:40.429Z,5.80
2018-03-26T18:29:07.918Z,5.80
2018-03-26T18:31:36.174Z,5.80
2018-03-26T18:34:03.658Z,5.70
2018-03-26T18:36:36.829Z,5.70
2018-03-26T18:39:05.118Z,5.60
2018-03-26T18:41:33.508Z,5.60
2018-03-26T18:44:01.022Z,5.60
2018-03-26T18:46:28.541Z,5.50
2018-03-26T18:48:56.770Z,5.50
2018-03-26T18:51:24.255Z,5.50
2018-03-26T18:53:52.506Z,5.50
2018-03-26T18:56:19.987Z,5.40
2018-03-26T18:58:48.246Z,5.20
2018-03-26T19:01:16.566Z,5.10
2018-03-26T19:03:44.058Z,5.10
2018-03-26T19:06:11.551Z,4.90
2018-03-26T19:08:39.801Z,4.70
2018-03-26T19:11:07.299Z,4.60
2018-03-26T19:13:34.790Z,4.60
2018-03-26T19:16:02.270Z,4.50
2018-03-26T19:18:30.528Z,4.30
2018-03-26T19:20:58.011Z,4.30
2018-03-26T19:23:25.522Z,4.30
2018-03-26T19:25:53.026Z,4.40
2018-03-26T19:28:20.955Z,4.40
2018-03-26T19:30:48.474Z,4.50
2018-03-26T19:33:15.953Z,4.50
2018-03-26T19:35:43.425Z,4.60
2018-03-26T19:38:11.674Z,4.80
2018-03-26T19:40:39.147Z,4.70
2018-03-26T19:43:06.625Z,4.80
2018-03-26T19:45:34.100Z,4.70
2018-03-26T19:48:01.593Z,4.70
2018-03-26T19:50:29.915Z,4.60
2018-03-26T19:55:49.848Z,4.60
2018-03-26T19:58:17.324Z,4.60
2018-03-26T20:00:44.788Z,4.60
2018-03-26T20:03:12.285Z,4.60
2018-03-26T20:05:39.748Z,4.60
2018-03-26T20:08:07.231Z,4.60
2018-03-26T20:10:35.062Z,4.60
2018-03-26T20:13:03.284Z,4.60
2018-03-26T20:15:30.764Z,4.60
2018-03-26T20:17:58.240Z,4.70
2018-03-26T20:20:27.626Z,4.70
2018-03-26T20:22:55.136Z,4.80
2018-03-26T20:25:22.610Z,4.70
2018-03-26T20:27:50.848Z,4.80
2018-03-26T20:30:18.323Z,4.80
2018-03-26T20:32:45.788Z,4.90
2018-03-26T20:35:13.300Z,5.00
2018-03-26T20:37:41.107Z,5.00
2018-03-26T20:40:08.583Z,5.00
2018-03-26T20:42:36.077Z,5.00
2018-03-26T20:45:03.608Z,5.00
2018-03-26T20:47:31.145Z,5.00
2018-03-26T20:49:58.653Z,5.00
2018-03-26T20:52:26.140Z,5.00
2018-03-26T20:54:53.641Z,4.90
2018-03-26T20:57:21.136Z,4.80
2018-03-26T20:59:49.163Z,4.70
2018-03-26T21:02:16.742Z,4.60
2018-03-26T21:04:44.277Z,4.60
2018-03-26T21:07:12.582Z,4.60
2018-03-26T21:09:40.081Z,4.50
2018-03-26T21:12:07.615Z,4.60
2018-03-26T21:14:35.890Z,4.60
2018-03-26T21:17:04.225Z,4.60
2018-03-26T21:19:31.784Z,4.60
2018-03-26T21:21:59.301Z,4.60
2018-03-26T21:24:27.568Z,4.70
2018-03-26T21:26:55.089Z,4.60
2018-03-26T21:29:22.625Z,4.70
2018-03-26T21:31:50.143Z,4.70
2018-03-26T21:34:18.427Z,4.80
2018-03-26T21:36:46.725Z,4.90
2018-03-26T21:39:14.229Z,4.80
2018-03-26T21:41:52.417Z,4.90
2018-03-26T21:44:19.921Z,4.90
2018-03-26T21:46:47.420Z,4.90
2018-03-26T21:49:14.955Z,4.90
2018-03-26T21:51:42.456Z,5.00
2018-03-26T21:54:09.998Z,5.00
2018-03-26T21:56:37.518Z,5.10
2018-03-26T21:59:05.046Z,5.10
2018-03-26T22:01:32.565Z,5.00
2018-03-26T22:04:00.858Z,4.80
2018-03-26T22:06:29.140Z,4.80
2018-03-26T22:08:57.463Z,4.80
2018-03-26T22:11:25.022Z,4.80
2018-03-26T22:13:53.317Z,4.90
2018-03-26T22:16:20.813Z,4.90
2018-03-26T22:18:48.357Z,4.90
2018-03-26T22:21:15.869Z,4.90
2018-03-26T22:23:43.406Z,4.90
2018-03-26T22:26:11.000Z,4.80
2018-03-26T22:28:38.524Z,4.80
2018-03-26T22:31:06.818Z,4.80
2018-03-26T22:33:35.257Z,4.80
2018-03-26T22:36:02.763Z,4.80
2018-03-26T22:38:30.235Z,4.90
2018-03-26T22:40:57.921Z,4.80
2018-03-26T22:43:26.222Z,4.90
2018-03-26T22:45:54.672Z,4.90
2018-03-26T22:48:22.285Z,4.90
2018-03-26T22:50:50.580Z,4.80
2018-03-26T22:53:18.117Z,4.80
2018-03-26T22:55:45.676Z,4.80
2018-03-26T22:58:13.203Z,4.70
2018-03-26T23:00:40.755Z,4.70
2018-03-26T23:03:09.115Z,4.50
2018-03-26T23:05:36.708Z,4.50
2018-03-26T23:08:04.224Z,4.50
2018-03-26T23:10:31.769Z,4.50
2018-03-26T23:13:00.048Z,4.50
2018-03-26T23:15:28.333Z,4.40
2018-03-26T23:17:56.613Z,4.50
2018-03-26T23:20:27.707Z,4.40
2018-03-26T23:22:55.290Z,4.50
2018-03-26T23:25:22.799Z,4.50
2018-03-26T23:27:50.326Z,4.50
2018-03-26T23:30:17.886Z,4.50
2018-03-26T23:32:45.388Z,4.50
2018-03-26T23:35:12.942Z,4.50
2018-03-26T23:37:40.433Z,4.50
2018-03-26T23:40:07.952Z,4.50
2018-03-26T23:42:35.472Z,4.50
2018-03-26T23:45:03.005Z,4.50
2018-03-26T23:47:30.509Z,4.50
2018-03-26T23:49:58.063Z,4.60
2018-03-26T23:52:25.565Z,4.60
2018-03-26T23:54:53.099Z,4.70
2018-03-26T23:57:20.626Z,4.60
2018-03-26T23:59:48.128Z,4.70
